Time,TemperatureF,DewpointF,PressureIn,WindDirection,WindDirectionDegrees,WindSpeedMPH,WindSpeedGustMPH,Humidity,HourlyPrecipIn,Conditions,Clouds,dailyrainin,SoftwareType,DateUTC
2013-02-20 11:59:00,34.3,6.0,29.75,ENE,67,13.8,13.8,30,0.00,CLR,,0.00,WeatherDisplay:10.37,2013-02-20 18:59:00,
2013-02-20 12:00:00,34.3,6.0,29.73,ENE,66,12.7,12.7,30,0.00,CLR,,0.00,WeatherDisplay:10.37,2013-02-20 19:00:00,
2013-02-20 12:01:00,34.3,6.0,29.73,ENE,57,12.7,12.7,30,0.00,CLR,,0.00,WeatherDisplay:10.37,2013-02-20 19:01:00,
2013-02-20 12:06:00,34.7,7.1,29.73,East,86,11.5,11.5,31,0.00,CLR,,0.00,WeatherDisplay:10.37,2013-02-20 19:06:00,
2013-02-20 12:11:00,34.9,7.3,29.73,ENE,69,5.8,5.8,31,0.00,CLR,,0.00,WeatherDisplay:10.37,2013-02-20 19:11:00,
2013-02-20 12:16:00,36.3,7.0,29.72,NNE,21,10.4,10.4,29,0.00,CLR,,0.00,WeatherDisplay:10.37,2013-02-20 19:16:00,
2013-02-20 12:21:00,37.6,6.6,29.72,North,5,11.5,11.5,27,0.00,CLR,,0.00,WeatherDisplay:10.37,2013-02-20 19:21:00,
2013-02-20 12:26:00,38.6,7.4,29.72,East,83,10.4,10.4,27,0.00,CLR,,0.00,WeatherDisplay:10.37,2013-02-20 19:26:00,
2013-02-20 12:31:00,38.3,7.2,29.68,East,86,8.1,8.1,27,0.00,CLR,,0.00,WeatherDisplay:10.37,2013-02-20 19:31:00,
2013-02-20 12:36:00,37.0,6.9,29.68,East,81,10.4,10.4,28,0.00,CLR,,0.00,WeatherDisplay:10.37,2013-02-20 19:36:00,
2013-02-20 12:41:00,36.3,6.3,29.68,East,96,11.5,11.5,28,0.00,CLR,,0.00,WeatherDisplay:10.37,2013-02-20 19:41:00,
2013-02-20 12:46:00,36.2,6.9,29.70,East,88,10.4,10.4,29,0.00,CLR,,0.00,WeatherDisplay:10.37,2013-02-20 19:46:00,
2013-02-20 12:51:00,35.6,6.4,29.70,ESE,104,11.5,11.5,29,0.00,CLR,,0.00,WeatherDisplay:10.37,2013-02-20 19:51:00,
2013-02-20 12:56:00,35.6,7.2,29.70,ESE,122,8.1,8.1,30,0.00,CLR,,0.00,WeatherDisplay:10.37,2013-02-20 19:56:00,
2013-02-20 13:01:00,35.8,6.6,29.70,NE,50,11.5,11.5,29,0.00,CLR,,0.00,WeatherDisplay:10.37,2013-02-20 20:01:00,
2013-02-20 13:06:00,36.6,7.3,29.70,NNE,33,11.5,11.5,29,0.00,CLR,,0.00,WeatherDisplay:10.37,2013-02-20 20:06:00,
2013-02-20 13:11:00,36.8,7.5,29.70,NE,53,11.5,11.5,29,0.00,CLR,,0.00,WeatherDisplay:10.37,2013-02-20 20:11:00,
2013-02-20 13:16:00,36.5,7.2,29.68,NE,36,11.5,11.5,29,0.00,CLR,,0.00,WeatherDisplay:10.37,2013-02-20 20:16:00,
2013-02-20 13:21:00,36.2,6.9,29.68,East,86,10.4,10.4,29,0.00,CLR,,0.00,WeatherDisplay:10.37,2013-02-20 20:21:00,
2013-02-20 13:26:00,35.8,6.6,29.68,East,96,8.1,8.1,29,0.00,CLR,,0.00,WeatherDisplay:10.37,2013-02-20 20:26:00,
2013-02-20 13:31:00,35.0,6.6,29.68,ESE,105,8.1,8.1,30,0.00,CLR,,0.00,WeatherDisplay:10.37,2013-02-20 20:31:00,
2013-02-20 13:36:00,35.0,6.6,29.68,ESE,105,8.1,8.1,30,0.00,CLR,,0.00,WeatherDisplay:10.37,2013-02-20 20:36:00,
2013-02-20 13:41:00,36.2,6.9,29.71,NE,42,10.4,10.4,29,0.00,CLR,,0.00,WeatherDisplay:10.37,2013-02-20 20:41:00,
2013-02-20 13:46:00,36.3,7.0,29.68,NNE,16,11.5,11.5,29,0.00,CLR,,0.00,WeatherDisplay:10.37,2013-02-20 20:46:00,
2013-02-20 13:55:00,35.3,6.9,29.68,East,88,11.5,11.5,30,0.00,CLR,,0.00,WeatherDisplay:10.37,2013-02-20 20:55:00,
2013-02-20 14:01:00,35.0,7.4,29.68,SE,127,6.9,6.9,31,0.00,CLR,,0.00,WeatherDisplay:10.37,2013-02-20 21:01:00,
2013-02-20 14:06:00,34.7,7.1,29.68,ESE,122,3.5,3.5,31,0.00,CLR,,0.00,WeatherDisplay:10.37,2013-02-20 21:06:00,
2013-02-20 14:11:00,34.7,6.4,29.68,ENE,70,4.6,4.6,30,0.00,CLR,,0.00,WeatherDisplay:10.37,2013-02-20 21:11:00,
2013-02-20 14:16:00,35.5,6.3,29.69,NE,40,4.6,4.6,29,0.00,CLR,,0.00,WeatherDisplay:10.37,2013-02-20 21:16:00,
2013-02-20 14:21:00,35.8,5.8,29.69,East,81,4.6,4.6,28,0.00,CLR,,0.00,WeatherDisplay:10.37,2013-02-20 21:21:00,
2013-02-20 14:26:00,35.5,6.3,29.69,NW,316,3.5,3.5,29,0.00,CLR,,0.00,WeatherDisplay:10.37,2013-02-20 21:26:00,
2013-02-20 14:31:00,36.5,6.4,29.67,NE,52,8.1,8.1,28,0.00,CLR,,0.00,WeatherDisplay:10.37,2013-02-20 21:31:00,
2013-02-20 14:36:00,36.0,8.2,29.67,East,93,6.0,6.0,31,0.00,CLR,,0.00,WeatherDisplay:10.37,2013-02-20 21:36:00,
2013-02-20 14:41:00,35.9,8.2,29.67,ESE,104,5.8,5.8,31,0.00,CLR,,0.00,WeatherDisplay:10.37,2013-02-20 21:41:00,
2013-02-20 14:46:00,35.2,8.2,29.67,East,79,8.1,8.1,32,0.00,CLR,,0.00,WeatherDisplay:10.37,2013-02-20 21:46:00,
2013-02-20 14:51:00,34.7,8.5,29.67,East,81,8.1,8.1,33,0.00,CLR,,0.00,WeatherDisplay:10.37,2013-02-20 21:51:00,
2013-02-20 14:56:00,33.8,9.6,29.67,ENE,76,11.5,11.5,36,0.00,CLR,,0.00,WeatherDisplay:10.37,2013-02-20 21:56:00,
2013-02-20 15:01:00,33.1,9.6,29.70,East,100,12.7,12.7,37,0.00,CLR,,0.00,WeatherDisplay:10.37,2013-02-20 22:01:00,
2013-02-20 15:06:00,33.2,10.3,29.70,ENE,62,13.8,13.8,38,0.00,CLR,,0.00,WeatherDisplay:10.37,2013-02-20 22:06:00,
2013-02-20 15:11:00,32.5,10.3,29.70,East,80,13.8,13.8,39,0.00,CLR,,0.00,WeatherDisplay:10.37,2013-02-20 22:11:00,
2013-02-20 15:16:00,31.3,10.3,29.72,ESE,105,11.5,11.5,41,0.00,CLR,,0.00,WeatherDisplay:10.37,2013-02-20 22:16:00,
2013-02-20 15:21:00,30.4,10.5,29.72,East,84,11.5,11.5,43,0.00,CLR,,0.00,WeatherDisplay:10.37,2013-02-20 22:21:00,
2013-02-20 15:26:00,29.8,10.5,29.72,ENE,77,12.0,12.0,44,0.00,CLR,,0.00,WeatherDisplay:10.37,2013-02-20 22:26:00,
2013-02-20 15:31:00,29.8,10.5,29.74,East,88,12.7,12.7,44,0.00,CLR,,0.00,WeatherDisplay:10.37,2013-02-20 22:31:00,
2013-02-20 15:36:00,29.4,10.1,29.74,East,97,11.5,11.5,44,0.00,CLR,,0.00,WeatherDisplay:10.37,2013-02-20 22:36:00,
2013-02-20 15:41:00,29.0,10.8,29.74,ENE,76,12.0,12.0,46,0.00,CLR,,0.00,WeatherDisplay:10.37,2013-02-20 22:41:00,
2013-02-20 15:46:00,29.0,10.8,29.74,East,93,10.4,10.4,46,0.00,CLR,,0.00,WeatherDisplay:10.37,2013-02-20 22:46:00,
2013-02-20 15:51:00,28.8,10.6,29.74,East,84,12.0,12.0,46,0.00,CLR,,0.00,WeatherDisplay:10.37,2013-02-20 22:51:00,
2013-02-20 15:56:00,28.7,10.5,29.74,East,90,11.5,11.5,46,0.00,CLR,,0.00,WeatherDisplay:10.37,2013-02-20 22:56:00,
2013-02-20 16:01:00,28.4,10.7,29.75,NE,56,12.7,12.7,47,0.00,CLR,,0.00,WeatherDisplay:10.37,2013-02-20 23:01:00,
2013-02-20 16:06:00,28.2,10.5,29.75,ENE,69,11.5,11.5,47,0.00,CLR,,0.00,WeatherDisplay:10.37,2013-02-20 23:06:00,
2013-02-20 16:11:00,27.9,10.7,29.75,NE,48,11.5,11.5,48,0.00,CLR,,0.00,WeatherDisplay:10.37,2013-02-20 23:11:00,
2013-02-20 16:16:00,27.6,10.9,29.77,NE,45,11.5,11.5,49,0.00,CLR,,0.00,WeatherDisplay:10.37,2013-02-20 23:16:00,
2013-02-20 16:21:00,27.5,10.8,29.77,ENE,59,11.5,11.5,49,0.00,CLR,,0.00,WeatherDisplay:10.37,2013-02-20 23:21:00,
2013-02-20 16:26:00,27.3,10.6,29.77,NE,40,10.4,10.4,49,0.00,CLR,,0.00,WeatherDisplay:10.37,2013-02-20 23:26:00,
2013-02-20 16:31:00,27.2,11.0,29.77,ENE,69,10.4,10.4,50,0.00,CLR,,0.00,WeatherDisplay:10.37,2013-02-20 23:31:00,
2013-02-20 16:36:00,27.0,10.8,29.77,ENE,73,11.5,11.5,50,0.00,CLR,,0.00,WeatherDisplay:10.37,2013-02-20 23:36:00,
2013-02-20 16:41:00,26.6,10.9,29.77,East,83,8.1,8.1,51,0.00,CLR,,0.00,WeatherDisplay:10.37,2013-02-20 23:41:00,
2013-02-20 16:46:00,26.1,10.9,29.80,ENE,66,8.1,8.1,52,0.00,CLR,,0.00,WeatherDisplay:10.37,2013-02-20 23:46:00,
2013-02-20 16:51:00,25.7,10.9,29.80,ENE,69,10.4,10.4,53,0.00,CLR,,0.00,WeatherDisplay:10.37,2013-02-20 23:51:00,
2013-02-20 16:56:00,25.6,10.8,29.80,NE,55,6.0,6.0,53,0.00,CLR,,0.00,WeatherDisplay:10.37,2013-02-20 23:56:00,
2013-02-20 17:01:00,25.4,11.0,29.80,ENE,57,8.1,8.1,54,0.00,CLR,,0.00,WeatherDisplay:10.37,2013-02-21 00:01:00,
2013-02-20 17:06:00,25.4,11.0,29.80,NE,49,6.9,6.9,54,0.00,CLR,,0.00,WeatherDisplay:10.37,2013-02-21 00:06:00,
2013-02-20 17:11:00,25.3,11.0,29.80,NNE,16,8.1,8.1,54,0.00,CLR,,0.00,WeatherDisplay:10.37,2013-02-21 00:11:00,
2013-02-20 17:16:00,25.3,11.0,29.80,NE,52,8.1,8.1,54,0.00,CLR,,0.00,WeatherDisplay:10.37,2013-02-21 00:16:00,
2013-02-20 17:21:00,25.1,11.2,29.80,NE,52,6.9,6.9,55,0.00,CLR,,0.00,WeatherDisplay:10.37,2013-02-21 00:21:00,
2013-02-20 17:26:00,25.0,11.5,29.80,NNE,31,8.1,8.1,56,0.00,CLR,,0.00,WeatherDisplay:10.37,2013-02-21 00:26:00,
2013-02-20 17:31:00,24.8,11.7,29.80,NE,45,8.1,8.1,57,0.00,CLR,,0.00,WeatherDisplay:10.37,2013-02-21 00:31:00,
2013-02-20 17:36:00,24.7,12.0,29.80,NE,53,10.4,10.4,58,0.00,CLR,,0.00,WeatherDisplay:10.37,2013-02-21 00:36:00,
2013-02-20 17:41:00,24.5,12.6,29.80,East,84,5.8,5.8,60,0.00,CLR,,0.00,WeatherDisplay:10.37,2013-02-21 00:41:00,
2013-02-20 17:46:00,24.4,12.9,29.82,NE,52,6.9,6.9,61,0.00,CLR,,0.00,WeatherDisplay:10.37,2013-02-21 00:46:00,
2013-02-20 17:51:00,24.2,13.4,29.82,ENE,70,4.6,4.6,63,0.00,CLR,,0.00,WeatherDisplay:10.37,2013-02-21 00:51:00,
2013-02-20 17:56:00,23.9,13.5,29.82,ENE,72,4.6,4.6,64,0.00,CLR,,0.00,WeatherDisplay:10.37,2013-02-21 00:56:00,
2013-02-20 18:01:00,23.8,14.1,29.82,ENE,70,4.6,4.6,66,0.00,CLR,,0.00,WeatherDisplay:10.37,2013-02-21 01:01:00,
2013-02-20 18:06:00,23.6,14.2,29.82,East,87,8.1,8.1,67,0.00,CLR,,0.00,WeatherDisplay:10.37,2013-02-21 01:06:00,
2013-02-20 18:11:00,23.3,14.6,29.82,East,88,8.1,8.1,69,0.00,CLR,,0.00,WeatherDisplay:10.37,2013-02-21 01:11:00,
2013-02-20 18:16:00,22.9,14.9,29.83,East,90,8.0,8.0,71,0.00,CLR,,0.00,WeatherDisplay:10.37,2013-02-21 01:16:00,
2013-02-20 18:21:00,22.5,15.1,29.83,NE,55,10.0,10.0,73,0.00,CLR,,0.00,WeatherDisplay:10.37,2013-02-21 01:21:00,
2013-02-20 18:26:00,22.1,15.4,29.83,East,84,6.9,6.9,75,0.00,CLR,,0.00,WeatherDisplay:10.37,2013-02-21 01:26:00,
2013-02-20 18:31:00,21.6,15.5,29.85,ENE,70,8.1,8.1,77,0.00,CLR,,0.00,WeatherDisplay:10.37,2013-02-21 01:31:00,
2013-02-20 18:36:00,21.4,16.2,29.85,ENE,77,6.9,6.9,80,0.00,CLR,,0.00,WeatherDisplay:10.37,2013-02-21 01:36:00,
2013-02-20 18:41:00,21.1,16.2,29.85,East,87,6.9,6.9,81,0.00,CLR,,0.00,WeatherDisplay:10.37,2013-02-21 01:41:00,
2013-02-20 18:46:00,21.0,16.4,29.85,ENE,76,5.8,5.8,82,0.00,CLR,,0.00,WeatherDisplay:10.37,2013-02-21 01:46:00,
2013-02-20 18:51:00,21.0,16.6,29.85,ENE,72,10.4,10.4,83,0.00,CLR,,0.00,WeatherDisplay:10.37,2013-02-21 01:51:00,
2013-02-20 18:56:00,20.8,16.5,29.85,ENE,72,6.9,6.9,83,0.00,CLR,,0.00,WeatherDisplay:10.37,2013-02-21 01:56:00,
2013-02-20 19:01:00,20.8,16.5,29.85,ENE,67,6.9,6.9,83,0.00,CLR,,0.00,WeatherDisplay:10.37,2013-02-21 02:01:00,
2013-02-20 19:06:00,21.0,16.6,29.85,East,84,5.8,5.8,83,0.00,CLR,,0.00,WeatherDisplay:10.37,2013-02-21 02:06:00,
2013-02-20 19:11:00,20.8,16.2,29.85,ENE,77,6.9,6.9,82,0.00,CLR,,0.00,WeatherDisplay:10.37,2013-02-21 02:11:00,
2013-02-20 19:16:00,20.5,16.2,29.84,East,86,6.9,6.9,83,0.00,CLR,,0.00,WeatherDisplay:10.37,2013-02-21 02:16:00,
2013-02-20 19:21:00,20.2,16.1,29.84,East,80,6.9,6.9,84,0.00,CLR,,0.00,WeatherDisplay:10.37,2013-02-21 02:21:00,
2013-02-20 19:26:00,20.0,16.2,29.84,East,86,5.8,5.8,85,0.00,CLR,,0.00,WeatherDisplay:10.37,2013-02-21 02:26:00,
2013-02-20 19:31:00,19.9,16.4,29.84,ENE,70,7.0,7.0,86,0.00,CLR,,0.00,WeatherDisplay:10.37,2013-02-21 02:31:00,
2013-02-20 19:36:00,19.7,16.2,29.84,East,79,5.0,5.0,86,0.00,CLR,,0.00,WeatherDisplay:10.37,2013-02-21 02:36:00,
2013-02-20 19:41:00,19.7,16.2,29.84,East,90,5.0,5.0,86,0.00,CLR,,0.00,WeatherDisplay:10.37,2013-02-21 02:41:00,
2013-02-20 19:46:00,19.7,16.2,29.84,NE,56,7.0,7.0,86,0.00,CLR,,0.00,WeatherDisplay:10.37,2013-02-21 02:46:00,
2013-02-20 19:51:00,19.9,16.4,29.84,ENE,62,6.9,6.9,86,0.00,CLR,,0.00,WeatherDisplay:10.37,2013-02-21 02:51:00,
2013-02-20 19:56:00,19.9,16.4,29.84,ENE,57,4.6,4.7,86,0.00,CLR,,0.00,WeatherDisplay:10.37,2013-02-21 02:56:00,
2013-02-20 20:01:00,19.9,16.4,29.84,ENE,59,5.8,5.8,86,0.00,CLR,,0.00,WeatherDisplay:10.37,2013-02-21 03:01:00,
2013-02-20 20:06:00,19.9,16.4,29.84,ENE,64,3.5,3.5,86,0.00,CLR,,0.00,WeatherDisplay:10.37,2013-02-21 03:06:00,
2013-02-20 20:11:00,19.9,16.4,29.84,ENE,66,3.5,3.5,86,0.00,CLR,,0.00,WeatherDisplay:10.37,2013-02-21 03:11:00,
2013-02-20 20:16:00,19.9,16.4,29.79,ENE,72,3.5,3.5,86,0.00,CLR,,0.00,WeatherDisplay:10.37,2013-02-21 03:16:00,
2013-02-20 20:21:00,19.9,16.4,29.79,East,94,3.5,3.5,86,0.00,CLR,,0.00,WeatherDisplay:10.37,2013-02-21 03:21:00,
2013-02-20 20:26:00,19.7,15.9,29.79,East,84,4.6,4.6,85,0.00,CLR,,0.00,WeatherDisplay:10.37,2013-02-21 03:26:00,
2013-02-20 20:31:00,19.5,15.7,29.79,ENE,74,5.8,5.8,85,0.00,CLR,,0.00,WeatherDisplay:10.37,2013-02-21 03:31:00,
2013-02-20 20:36:00,19.5,15.7,29.79,NE,55,6.9,6.9,85,0.00,CLR,,0.00,WeatherDisplay:10.37,2013-02-21 03:36:00,
2013-02-20 20:41:00,19.7,15.9,29.79,NE,56,5.0,5.0,85,0.00,CLR,,0.00,WeatherDisplay:10.37,2013-02-21 03:41:00,
2013-02-20 20:46:00,19.7,15.9,29.79,NE,55,5.8,5.8,85,0.00,CLR,,0.00,WeatherDisplay:10.37,2013-02-21 03:46:00,
2013-02-20 20:51:00,19.7,15.9,29.79,NE,55,3.5,3.5,85,0.00,CLR,,0.00,WeatherDisplay:10.37,2013-02-21 03:51:00,
2013-02-20 20:56:00,19.7,15.9,29.79,ENE,57,3.5,3.5,85,0.00,CLR,,0.00,WeatherDisplay:10.37,2013-02-21 03:56:00,
2013-02-20 21:01:00,19.7,15.9,29.79,East,80,3.5,3.5,85,0.00,CLR,,0.00,WeatherDisplay:10.37,2013-02-21 04:01:00,
2013-02-20 21:06:00,19.5,15.7,29.79,East,79,2.3,2.3,85,0.00,CLR,,0.00,WeatherDisplay:10.37,2013-02-21 04:06:00,
2013-02-20 21:11:00,19.5,15.7,29.79,East,79,2.3,2.3,85,0.00,CLR,,0.00,WeatherDisplay:10.37,2013-02-21 04:11:00,
2013-02-20 21:16:00,19.4,15.6,29.72,East,79,3.5,3.5,85,0.00,CLR,,0.00,WeatherDisplay:10.37,2013-02-21 04:16:00,
2013-02-20 21:21:00,19.4,15.6,29.72,East,86,3.5,3.5,85,0.00,CLR,,0.00,WeatherDisplay:10.37,2013-02-21 04:21:00,
2013-02-20 21:26:00,19.4,15.6,29.72,East,86,5.0,5.0,85,0.00,CLR,,0.00,WeatherDisplay:10.37,2013-02-21 04:26:00,
2013-02-20 21:31:00,19.4,15.6,29.72,East,83,5.0,5.0,85,0.00,CLR,,0.00,WeatherDisplay:10.37,2013-02-21 04:31:00,
2013-02-20 21:36:00,19.2,15.4,29.72,East,81,3.5,3.5,85,0.00,CLR,,0.00,WeatherDisplay:10.37,2013-02-21 04:36:00,
2013-02-20 21:41:00,19.2,15.2,29.72,East,90,4.6,4.6,84,0.00,CLR,,0.00,WeatherDisplay:10.37,2013-02-21 04:41:00,
2013-02-20 21:46:00,18.9,14.9,29.72,East,84,4.6,4.6,84,0.00,CLR,,0.00,WeatherDisplay:10.37,2013-02-21 04:46:00,
2013-02-20 21:51:00,18.8,14.8,29.72,East,83,4.6,4.6,84,0.00,CLR,,0.00,WeatherDisplay:10.37,2013-02-21 04:51:00,
2013-02-20 21:56:00,18.6,14.6,29.72,ENE,77,4.6,4.6,84,0.00,CLR,,0.00,WeatherDisplay:10.37,2013-02-21 04:56:00,
2013-02-20 22:00:00,18.6,14.6,29.72,East,83,5.8,5.8,84,0.00,CLR,,0.00,WeatherDisplay:10.37,2013-02-21 05:00:00,
2013-02-20 22:02:00,18.4,14.4,29.73,ENE,64,2.3,2.3,84,0.00,CLR,,0.00,WeatherDisplay:10.37,2013-02-21 05:02:00,
2013-02-20 22:07:00,18.4,14.4,29.73,ESE,103,4.6,4.6,84,0.00,CLR,,0.00,WeatherDisplay:10.37,2013-02-21 05:07:00,
2013-02-20 22:12:00,18.4,14.4,29.73,East,79,3.5,3.5,84,0.00,CLR,,0.00,WeatherDisplay:10.37,2013-02-21 05:12:00,
2013-02-20 22:17:00,18.4,14.4,29.72,ENE,77,4.6,4.6,84,0.00,CLR,,0.00,WeatherDisplay:10.37,2013-02-21 05:17:00,
2013-02-20 22:22:00,18.3,14.3,29.72,ENE,64,5.0,5.0,84,0.00,CLR,,0.00,WeatherDisplay:10.37,2013-02-21 05:22:00,
2013-02-20 22:27:00,18.3,14.3,29.72,East,96,3.5,3.5,84,0.00,CLR,,0.00,WeatherDisplay:10.37,2013-02-21 05:27:00,
2013-02-20 22:32:00,18.1,14.1,29.72,ENE,70,3.5,3.5,84,0.00,CLR,,0.00,WeatherDisplay:10.37,2013-02-21 05:32:00,
2013-02-20 22:37:00,18.0,14.0,29.72,ESE,115,4.6,4.6,84,0.00,CLR,,0.00,WeatherDisplay:10.37,2013-02-21 05:37:00,
2013-02-20 22:42:00,17.8,13.8,29.72,East,100,4.6,4.6,84,0.00,CLR,,0.00,WeatherDisplay:10.37,2013-02-21 05:42:00,
2013-02-20 22:47:00,17.7,13.7,29.72,ENE,73,4.6,4.6,84,0.00,CLR,,0.00,WeatherDisplay:10.37,2013-02-21 05:47:00,
2013-02-20 22:52:00,17.5,13.5,29.72,East,79,2.3,2.3,84,0.00,CLR,,0.00,WeatherDisplay:10.37,2013-02-21 05:52:00,
2013-02-20 22:57:00,17.5,13.5,29.72,East,86,3.5,3.5,84,0.00,CLR,,0.00,WeatherDisplay:10.37,2013-02-21 05:57:00,
2013-02-20 23:02:00,17.3,13.3,29.72,ENE,67,4.6,4.6,84,0.00,CLR,,0.00,WeatherDisplay:10.37,2013-02-21 06:02:00,
2013-02-20 23:07:00,17.3,13.3,29.72,ENE,63,5.0,5.0,84,0.00,CLR,,0.00,WeatherDisplay:10.37,2013-02-21 06:07:00,
2013-02-20 23:12:00,17.5,13.5,29.72,ENE,63,3.5,3.5,84,0.00,CLR,,0.00,WeatherDisplay:10.37,2013-02-21 06:12:00,
2013-02-20 23:17:00,17.5,13.5,29.69,ENE,66,3.5,3.5,84,0.00,CLR,,0.00,WeatherDisplay:10.37,2013-02-21 06:17:00,
2013-02-20 23:22:00,17.3,13.3,29.69,ENE,74,4.6,4.6,84,0.00,CLR,,0.00,WeatherDisplay:10.37,2013-02-21 06:22:00,
2013-02-20 23:27:00,17.2,13.2,29.69,ENE,63,4.6,4.6,84,0.00,CLR,,0.00,WeatherDisplay:10.37,2013-02-21 06:27:00,
2013-02-20 23:32:00,17.2,13.2,29.70,ENE,63,3.5,3.5,84,0.00,CLR,,0.00,WeatherDisplay:10.37,2013-02-21 06:32:00,
2013-02-20 23:37:00,17.0,13.0,29.70,ENE,62,3.5,3.5,84,0.00,CLR,,0.00,WeatherDisplay:10.37,2013-02-21 06:37:00,
2013-02-20 23:42:00,17.0,12.7,29.70,ENE,57,5.0,5.0,83,0.00,CLR,,0.00,WeatherDisplay:10.37,2013-02-21 06:42:00,
2013-02-20 23:47:00,17.0,12.7,29.70,NE,56,1.2,1.2,83,0.00,CLR,,0.00,WeatherDisplay:10.37,2013-02-21 06:47:00,
2013-02-20 23:52:00,16.9,12.6,29.70,NNE,29,1.2,1.2,83,0.00,CLR,,0.00,WeatherDisplay:10.37,2013-02-21 06:52:00,
2013-02-20 23:57:00,16.7,12.4,29.70,NNE,15,4.6,4.6,83,0.00,CLR,,0.00,WeatherDisplay:10.37,2013-02-21 06:57:00,